X  Chiuso Dati meteorologici dell'aviazione (METAR)     EHAM Amsterdam Airport Schiphol
Temperatura
17°C Temperatura
15°C Punto di rugiada
88% Umidità



Vento
4 M/S
9 MPH
14 KM/O
8 KTS



80°
E
Condizioni attuali

Area Docce Area Docce
Pressione 1009.82 (hPa) - 29.82 (inHg)
Visibilità 6 (miglio) - 9.7 (km)
Aeroporto
Codice-Aeroporto EHAM

Posizione: Amsterdam Airport Schiphol
Distanza: 26 (km)

Metar:
EHAM 201925Z 08008KT 030V110 9999 VCSH FEW011 FEW025CB 17/15 Q1010 NOSIG

Ore: 20-05-2024 21:25 CEST